createdAt,value
2022-08-26T00:00:03.536Z,21.42
2022-08-26T00:01:03.754Z,21.40
2022-08-26T00:02:01.882Z,21.38
2022-08-26T00:03:01.804Z,21.38
2022-08-26T00:04:02.005Z,21.37
2022-08-26T00:05:01.977Z,21.34
2022-08-26T00:06:01.817Z,21.34
2022-08-26T00:07:02.406Z,21.33
2022-08-26T00:08:02.875Z,21.29
2022-08-26T00:09:02.713Z,21.28
2022-08-26T00:10:02.725Z,21.26
2022-08-26T00:11:02.486Z,21.28
2022-08-26T00:12:02.247Z,21.21
2022-08-26T00:13:02.489Z,21.24
2022-08-26T00:14:02.065Z,21.24
2022-08-26T00:15:02.682Z,21.23
2022-08-26T00:16:02.147Z,21.20
2022-08-26T00:17:02.356Z,21.15
2022-08-26T00:18:02.682Z,21.13
2022-08-26T00:19:02.623Z,21.13
2022-08-26T00:20:02.368Z,21.16
2022-08-26T00:21:06.268Z,21.19
2022-08-26T00:22:02.770Z,21.20
2022-08-26T00:23:02.701Z,21.24
2022-08-26T00:24:03.082Z,21.23
2022-08-26T00:25:03.111Z,21.22
2022-08-26T00:26:03.056Z,21.22
2022-08-26T00:27:01.851Z,21.20
2022-08-26T00:28:02.455Z,21.19
2022-08-26T00:29:02.163Z,21.19
2022-08-26T00:30:02.218Z,21.21
2022-08-26T00:31:02.148Z,21.22
2022-08-26T00:32:02.152Z,21.24
2022-08-26T00:33:02.077Z,21.24
2022-08-26T00:34:02.244Z,21.25
2022-08-26T00:35:02.123Z,21.28
2022-08-26T00:36:02.167Z,21.29
2022-08-26T00:37:02.185Z,21.31
2022-08-26T00:38:02.021Z,21.31
2022-08-26T00:39:02.057Z,21.28
2022-08-26T00:40:05.364Z,21.28
2022-08-26T00:41:02.337Z,21.26
2022-08-26T00:42:02.115Z,21.27
2022-08-26T00:43:02.232Z,21.25
2022-08-26T00:44:02.467Z,21.23
2022-08-26T00:45:02.678Z,21.24
2022-08-26T00:46:02.572Z,21.22
2022-08-26T00:47:02.813Z,21.20
2022-08-26T00:48:02.875Z,21.20
2022-08-26T00:49:02.875Z,21.18
2022-08-26T00:50:02.390Z,21.17
2022-08-26T00:51:02.632Z,21.17
2022-08-26T00:52:02.318Z,21.17
2022-08-26T00:53:02.284Z,21.16
2022-08-26T00:54:02.265Z,21.13
2022-08-26T00:55:02.568Z,21.11
2022-08-26T00:56:02.417Z,21.10
2022-08-26T00:57:02.960Z,21.09
2022-08-26T00:58:02.973Z,21.07
2022-08-26T00:59:02.791Z,21.05
2022-08-26T01:00:02.852Z,21.03
2022-08-26T01:01:02.980Z,21.03
2022-08-26T01:02:03.226Z,21.02
2022-08-26T01:03:02.536Z,21.00
2022-08-26T01:04:02.478Z,21.00
2022-08-26T01:05:03.218Z,20.98
2022-08-26T01:06:03.031Z,20.98
2022-08-26T01:07:02.133Z,20.97
2022-08-26T01:08:02.242Z,20.95
2022-08-26T01:09:01.702Z,20.92
2022-08-26T01:10:01.706Z,20.90
2022-08-26T01:11:02.320Z,20.88
2022-08-26T01:12:02.232Z,20.88
2022-08-26T01:13:01.937Z,20.88
2022-08-26T01:14:01.894Z,20.86
2022-08-26T01:15:02.425Z,20.85
2022-08-26T01:16:02.193Z,20.84
2022-08-26T01:17:02.835Z,20.82
2022-08-26T01:18:03.032Z,20.82
2022-08-26T01:19:02.992Z,20.79
2022-08-26T01:20:03.124Z,20.80
2022-08-26T01:21:02.832Z,20.78
2022-08-26T01:22:02.914Z,20.76
2022-08-26T01:23:03.317Z,20.73
2022-08-26T01:24:02.857Z,20.68
2022-08-26T01:25:03.606Z,20.65
2022-08-26T01:26:03.096Z,20.63
2022-08-26T01:27:02.901Z,20.62
2022-08-26T01:28:02.891Z,20.60
2022-08-26T01:29:02.682Z,20.60
2022-08-26T01:30:03.323Z,20.59
2022-08-26T01:31:03.277Z,20.60
2022-08-26T01:32:01.878Z,20.62
2022-08-26T01:33:02.479Z,20.63
2022-08-26T01:34:02.265Z,20.60
2022-08-26T01:35:02.187Z,20.58
2022-08-26T01:36:02.109Z,20.56
2022-08-26T01:37:02.725Z,20.56
2022-08-26T01:38:02.631Z,20.53
2022-08-26T01:39:02.655Z,20.49
2022-08-26T01:40:02.782Z,20.49
2022-08-26T01:41:02.748Z,20.46
2022-08-26T01:42:03.139Z,20.43
2022-08-26T01:43:01.952Z,20.41
2022-08-26T01:44:02.636Z,20.40
2022-08-26T01:45:02.550Z,20.39
2022-08-26T01:46:02.336Z,20.38
2022-08-26T01:47:02.841Z,20.37
2022-08-26T01:48:03.035Z,20.34
2022-08-26T01:49:02.886Z,20.34
2022-08-26T01:50:03.093Z,20.34
2022-08-26T01:51:02.860Z,20.34
2022-08-26T01:52:03.087Z,20.33
2022-08-26T01:53:02.760Z,20.32
2022-08-26T01:54:03.175Z,20.32
2022-08-26T01:55:03.176Z,20.30
2022-08-26T01:56:02.842Z,20.29
2022-08-26T01:57:02.630Z,20.28
2022-08-26T01:58:02.321Z,20.26
2022-08-26T01:59:02.303Z,20.24
2022-08-26T02:00:02.640Z,20.23
2022-08-26T02:01:02.629Z,20.22
2022-08-26T02:02:02.663Z,20.21
2022-08-26T02:03:02.728Z,20.19
2022-08-26T02:04:02.696Z,20.17
2022-08-26T02:05:02.639Z,20.16
2022-08-26T02:06:02.994Z,20.15
2022-08-26T02:07:03.616Z,20.13
2022-08-26T02:08:03.185Z,20.11
2022-08-26T02:09:03.742Z,20.12
2022-08-26T02:10:03.414Z,20.12
2022-08-26T02:11:03.332Z,20.08
2022-08-26T02:12:03.850Z,20.06
2022-08-26T02:13:03.852Z,20.05
2022-08-26T02:14:03.713Z,20.05
2022-08-26T02:15:05.693Z,20.03
2022-08-26T02:16:03.569Z,20.02
2022-08-26T02:17:03.165Z,20.03
2022-08-26T02:18:03.017Z,20.02
2022-08-26T02:19:02.771Z,20.02
2022-08-26T02:20:02.607Z,20.03
2022-08-26T02:21:03.226Z,20.03
2022-08-26T02:22:03.598Z,20.02
2022-08-26T02:23:03.695Z,20.01
2022-08-26T02:24:03.559Z,19.99
2022-08-26T02:25:03.565Z,19.98
2022-08-26T02:26:03.472Z,19.97
2022-08-26T02:27:04.103Z,19.97
2022-08-26T02:28:04.160Z,19.96
2022-08-26T02:29:04.046Z,19.94
2022-08-26T02:30:03.957Z,19.93
2022-08-26T02:31:03.870Z,19.92
2022-08-26T02:32:02.919Z,19.92
2022-08-26T02:33:03.401Z,19.92
2022-08-26T02:34:03.258Z,19.90
2022-08-26T02:35:02.925Z,19.88
2022-08-26T02:36:03.113Z,19.87
2022-08-26T02:37:03.114Z,19.87
2022-08-26T02:38:03.189Z,19.88
2022-08-26T02:39:03.309Z,19.87
2022-08-26T02:40:03.422Z,19.87
2022-08-26T02:41:03.410Z,19.86
2022-08-26T02:42:03.872Z,19.85
2022-08-26T02:43:03.550Z,19.84
2022-08-26T02:44:04.034Z,19.82
2022-08-26T02:45:03.940Z,19.81
2022-08-26T02:46:04.057Z,19.80
2022-08-26T02:47:03.606Z,19.79
2022-08-26T02:48:04.193Z,19.78
2022-08-26T02:49:03.942Z,19.80
2022-08-26T02:50:03.930Z,19.78
2022-08-26T02:51:03.875Z,19.78
2022-08-26T02:52:02.882Z,19.75
2022-08-26T02:53:03.516Z,19.76
2022-08-26T02:54:03.703Z,19.76
2022-08-26T02:55:03.193Z,19.75
2022-08-26T02:56:03.159Z,19.77
2022-08-26T02:57:03.566Z,19.76
2022-08-26T02:58:03.608Z,19.75
2022-08-26T02:59:03.580Z,19.78
2022-08-26T03:00:03.333Z,19.80
2022-08-26T03:01:04.971Z,19.78
2022-08-26T03:02:02.902Z,19.75
2022-08-26T03:03:02.793Z,19.72
2022-08-26T03:04:02.529Z,19.70
2022-08-26T03:05:02.540Z,19.69
2022-08-26T03:06:02.588Z,19.66
2022-08-26T03:07:02.830Z,19.66
2022-08-26T03:08:02.726Z,19.63
2022-08-26T03:09:02.690Z,19.62
2022-08-26T03:10:08.247Z,19.63
2022-08-26T03:11:02.572Z,19.64
2022-08-26T03:12:02.709Z,19.62
2022-08-26T03:13:05.056Z,19.63
2022-08-26T03:14:03.668Z,19.63
2022-08-26T03:15:02.860Z,19.62
2022-08-26T03:16:03.075Z,19.62
2022-08-26T03:17:02.486Z,19.62
2022-08-26T03:18:02.954Z,19.62
2022-08-26T03:19:02.675Z,19.63
2022-08-26T03:20:02.766Z,19.63
2022-08-26T03:21:02.834Z,19.63
2022-08-26T03:22:02.781Z,19.64
2022-08-26T03:23:02.706Z,19.64
2022-08-26T03:24:03.105Z,19.65
2022-08-26T03:25:02.957Z,19.66
2022-08-26T03:26:03.136Z,19.67
2022-08-26T03:27:05.930Z,19.68
2022-08-26T03:28:03.117Z,19.68
2022-08-26T03:29:03.332Z,19.67
2022-08-26T03:30:03.316Z,19.69
2022-08-26T03:31:03.636Z,19.71
2022-08-26T03:32:03.376Z,19.73
2022-08-26T03:33:03.348Z,19.75
2022-08-26T03:34:03.688Z,19.77
2022-08-26T03:35:03.529Z,19.78
2022-08-26T03:36:03.541Z,19.81
2022-08-26T03:37:03.318Z,19.83
2022-08-26T03:38:03.302Z,19.84
2022-08-26T03:39:03.195Z,19.88
2022-08-26T03:40:03.243Z,19.92
2022-08-26T03:41:03.124Z,19.95
2022-08-26T03:42:03.143Z,19.96
2022-08-26T03:43:03.196Z,19.97
2022-08-26T03:44:03.172Z,20.02
2022-08-26T03:45:03.341Z,20.04
2022-08-26T03:46:03.546Z,20.07
2022-08-26T03:47:02.656Z,20.11
2022-08-26T03:48:02.565Z,20.14
2022-08-26T03:49:02.488Z,20.18
2022-08-26T03:50:02.595Z,20.23
2022-08-26T03:51:03.168Z,20.26
2022-08-26T03:52:03.025Z,20.28
2022-08-26T03:53:03.226Z,20.33
2022-08-26T03:54:02.722Z,20.37
2022-08-26T03:55:02.778Z,20.40
2022-08-26T03:56:02.996Z,20.46
2022-08-26T03:57:03.065Z,20.49
2022-08-26T03:58:03.102Z,20.53
2022-08-26T03:59:03.270Z,20.57
2022-08-26T04:00:03.129Z,20.60
2022-08-26T04:01:02.773Z,20.65
2022-08-26T04:02:02.377Z,20.68
2022-08-26T04:03:02.539Z,20.72
2022-08-26T04:04:02.408Z,20.77
2022-08-26T04:05:02.135Z,20.79
2022-08-26T04:06:02.049Z,20.83
2022-08-26T04:07:02.620Z,20.86
2022-08-26T04:08:02.365Z,20.89
2022-08-26T04:09:02.626Z,20.92
2022-08-26T04:10:02.725Z,20.96
2022-08-26T04:11:02.813Z,21.00
2022-08-26T04:12:02.803Z,21.02
2022-08-26T04:13:02.416Z,21.05
2022-08-26T04:14:03.012Z,21.09
2022-08-26T04:15:03.042Z,21.13
2022-08-26T04:16:02.686Z,21.19
2022-08-26T04:17:02.181Z,21.23
2022-08-26T04:18:02.577Z,21.25
2022-08-26T04:19:02.625Z,21.28
2022-08-26T04:20:02.357Z,21.32
2022-08-26T04:21:02.505Z,21.36
2022-08-26T04:22:02.716Z,21.39
2022-08-26T04:23:02.908Z,21.43
2022-08-26T04:24:03.604Z,21.45
2022-08-26T04:25:02.994Z,21.49
2022-08-26T04:26:03.127Z,21.51
2022-08-26T04:27:02.709Z,21.55
2022-08-26T04:28:02.275Z,21.57
2022-08-26T04:29:02.719Z,21.62
2022-08-26T04:30:02.606Z,21.65
2022-08-26T04:31:02.239Z,21.70
2022-08-26T04:32:02.917Z,21.75
2022-08-26T04:33:03.221Z,21.79
2022-08-26T04:34:02.779Z,21.82
2022-08-26T04:35:03.173Z,21.84
2022-08-26T04:36:02.589Z,21.85
2022-08-26T04:37:03.190Z,21.88
2022-08-26T04:38:03.432Z,21.90
2022-08-26T04:39:03.139Z,21.91
2022-08-26T04:40:03.554Z,21.94
2022-08-26T04:41:03.336Z,21.97
2022-08-26T04:42:03.622Z,21.98
2022-08-26T04:43:03.216Z,21.99
2022-08-26T04:44:03.214Z,22.00
2022-08-26T04:45:05.683Z,21.98
2022-08-26T04:46:03.579Z,21.97
2022-08-26T04:47:03.038Z,21.99
2022-08-26T04:48:02.909Z,22.02
2022-08-26T04:49:02.801Z,22.03
2022-08-26T04:50:03.209Z,22.07
2022-08-26T04:51:03.007Z,22.06
2022-08-26T04:52:02.734Z,22.09
2022-08-26T04:53:02.315Z,22.11
2022-08-26T04:54:02.279Z,22.11
2022-08-26T04:55:02.472Z,22.12
2022-08-26T04:56:02.505Z,22.13
2022-08-26T04:57:03.342Z,22.15
2022-08-26T04:58:02.820Z,22.16
2022-08-26T04:59:02.894Z,22.18
2022-08-26T05:00:03.152Z,22.19
2022-08-26T05:01:03.055Z,22.19
2022-08-26T05:02:02.976Z,22.21
2022-08-26T05:03:02.519Z,22.23
2022-08-26T05:04:03.029Z,22.26
2022-08-26T05:05:02.657Z,22.31
2022-08-26T05:06:02.550Z,22.35
2022-08-26T05:07:02.673Z,22.38
2022-08-26T05:08:02.126Z,22.43
2022-08-26T05:09:02.217Z,22.46
2022-08-26T05:10:02.644Z,22.51
2022-08-26T05:11:02.412Z,22.54
2022-08-26T05:12:02.645Z,22.57
2022-08-26T05:13:02.999Z,22.58
2022-08-26T05:14:03.009Z,22.58
2022-08-26T05:15:02.646Z,22.60
2022-08-26T05:16:03.088Z,22.62
2022-08-26T05:17:02.812Z,22.64
2022-08-26T05:18:02.346Z,22.66
2022-08-26T05:19:02.736Z,22.67
2022-08-26T05:20:02.397Z,22.69
2022-08-26T05:21:02.340Z,22.69
2022-08-26T05:22:02.459Z,22.71
2022-08-26T05:23:02.899Z,22.74
2022-08-26T05:24:02.831Z,22.76
2022-08-26T05:25:02.789Z,22.76
2022-08-26T05:26:02.404Z,22.78
2022-08-26T05:27:03.125Z,22.80
2022-08-26T05:28:02.695Z,22.80
2022-08-26T05:29:02.741Z,22.82
2022-08-26T05:30:03.136Z,22.83
2022-08-26T05:31:02.701Z,22.82
2022-08-26T05:32:02.912Z,22.83
2022-08-26T05:33:03.185Z,22.82
2022-08-26T05:34:03.722Z,22.81
2022-08-26T05:35:03.099Z,22.82
2022-08-26T05:36:02.706Z,22.83
2022-08-26T05:37:02.135Z,22.85
2022-08-26T05:38:02.224Z,22.87
2022-08-26T05:39:02.337Z,22.86
2022-08-26T05:40:02.621Z,22.86
2022-08-26T05:41:02.365Z,22.88
2022-08-26T05:42:02.895Z,22.88
2022-08-26T05:43:02.592Z,22.90
2022-08-26T05:44:02.811Z,22.88
2022-08-26T05:45:02.815Z,22.88
2022-08-26T05:46:03.127Z,22.87
2022-08-26T05:47:02.481Z,22.89
2022-08-26T05:48:02.677Z,22.91
2022-08-26T05:49:02.544Z,22.93
2022-08-26T05:50:02.750Z,22.95
2022-08-26T05:51:02.669Z,22.96
2022-08-26T05:52:03.260Z,22.97
2022-08-26T05:53:02.817Z,22.97
2022-08-26T05:54:02.704Z,22.97
2022-08-26T05:55:03.362Z,22.99
2022-08-26T05:56:03.140Z,23.01
2022-08-26T05:57:02.418Z,23.02
2022-08-26T05:58:02.894Z,23.07
2022-08-26T05:59:02.911Z,23.07
2022-08-26T06:00:02.343Z,23.08
2022-08-26T06:01:02.942Z,23.08
2022-08-26T06:02:03.115Z,23.10
2022-08-26T06:03:03.397Z,23.12
2022-08-26T06:04:03.069Z,23.13
2022-08-26T06:05:02.756Z,23.15
2022-08-26T06:06:02.759Z,23.16
2022-08-26T06:07:03.375Z,23.19
2022-08-26T06:08:03.070Z,23.21
2022-08-26T06:09:03.078Z,23.22
2022-08-26T06:10:28.691Z,23.25
2022-08-26T06:11:02.938Z,23.28
2022-08-26T06:12:03.159Z,23.28
2022-08-26T06:13:11.897Z,23.27
2022-08-26T06:14:03.728Z,23.26
2022-08-26T06:15:04.122Z,23.27
2022-08-26T06:16:03.404Z,23.28
2022-08-26T06:17:02.339Z,23.30
2022-08-26T06:18:02.435Z,23.33
2022-08-26T06:19:02.612Z,23.34
2022-08-26T06:20:02.373Z,23.35
2022-08-26T06:21:03.016Z,23.37
2022-08-26T06:22:02.668Z,23.35
2022-08-26T06:23:02.688Z,23.35
2022-08-26T06:24:02.767Z,23.37
2022-08-26T06:25:02.808Z,23.38
2022-08-26T06:26:03.202Z,23.40
2022-08-26T06:27:03.453Z,23.40
2022-08-26T06:28:03.176Z,23.36
2022-08-26T06:29:02.902Z,23.33
2022-08-26T06:30:03.455Z,23.34
2022-08-26T06:31:03.072Z,23.33
2022-08-26T06:32:03.614Z,23.30
2022-08-26T06:33:03.475Z,23.31
2022-08-26T06:34:07.254Z,23.32
2022-08-26T06:35:03.456Z,23.35
2022-08-26T06:36:03.638Z,23.38
2022-08-26T06:37:03.524Z,23.41
2022-08-26T06:38:03.752Z,23.46
2022-08-26T06:39:03.367Z,23.47
2022-08-26T06:40:03.880Z,23.45
2022-08-26T06:41:03.703Z,23.42
2022-08-26T06:42:03.078Z,23.38
2022-08-26T06:43:03.050Z,23.39
2022-08-26T06:44:03.095Z,23.36
2022-08-26T06:45:02.568Z,23.37
2022-08-26T06:46:02.809Z,23.37
2022-08-26T06:47:03.434Z,23.37
2022-08-26T06:48:03.656Z,23.39
2022-08-26T06:49:03.254Z,23.42
2022-08-26T06:50:03.393Z,23.45
2022-08-26T06:51:03.539Z,23.47
2022-08-26T06:52:02.623Z,23.48
2022-08-26T06:53:03.172Z,23.49
2022-08-26T06:54:03.067Z,23.49
2022-08-26T06:55:02.780Z,23.52
2022-08-26T06:56:03.177Z,23.54
2022-08-26T06:57:03.219Z,23.57
2022-08-26T06:58:03.435Z,23.59
2022-08-26T06:59:03.443Z,23.64
2022-08-26T07:00:02.993Z,23.67
2022-08-26T07:01:11.341Z,23.65
2022-08-26T07:02:02.586Z,23.60
2022-08-26T07:03:02.625Z,23.61
2022-08-26T07:04:02.503Z,23.59
2022-08-26T07:05:02.684Z,23.61
2022-08-26T07:06:02.605Z,23.65
2022-08-26T07:07:02.416Z,23.67
2022-08-26T07:08:02.334Z,23.69
2022-08-26T07:09:03.370Z,23.73
2022-08-26T07:10:02.156Z,23.73
2022-08-26T07:11:02.566Z,23.78
2022-08-26T07:12:02.799Z,23.79
2022-08-26T07:13:02.897Z,23.80
2022-08-26T07:14:02.651Z,23.82
2022-08-26T07:15:02.553Z,23.83
2022-08-26T07:16:02.912Z,23.85
2022-08-26T07:17:02.525Z,23.87
2022-08-26T07:18:02.247Z,23.88
2022-08-26T07:19:03.284Z,23.88
2022-08-26T07:20:02.285Z,23.86
2022-08-26T07:21:02.397Z,23.83
2022-08-26T07:22:03.352Z,23.85
2022-08-26T07:23:03.144Z,23.85
2022-08-26T07:24:03.090Z,23.87
2022-08-26T07:25:02.792Z,23.89
2022-08-26T07:26:02.805Z,23.90
2022-08-26T07:27:02.811Z,23.94
2022-08-26T07:28:02.582Z,23.93
2022-08-26T07:29:02.474Z,23.92
2022-08-26T07:30:02.859Z,23.87
2022-08-26T07:31:02.793Z,23.86
2022-08-26T07:32:03.264Z,23.85
2022-08-26T07:33:02.765Z,23.85
2022-08-26T07:34:03.112Z,23.84
2022-08-26T07:35:03.122Z,23.84
2022-08-26T07:36:02.783Z,23.86
2022-08-26T07:37:02.968Z,23.86
2022-08-26T07:38:03.027Z,23.88
2022-08-26T07:39:02.997Z,23.85
2022-08-26T07:40:02.971Z,23.85
2022-08-26T07:41:02.383Z,23.86
2022-08-26T07:42:07.759Z,23.87
2022-08-26T07:43:02.932Z,23.88
2022-08-26T07:44:02.528Z,23.91
2022-08-26T07:45:02.528Z,23.92
2022-08-26T07:46:02.830Z,23.90
2022-08-26T07:47:03.331Z,23.90
2022-08-26T07:48:03.983Z,23.89
2022-08-26T07:49:03.147Z,23.89
2022-08-26T07:50:03.546Z,23.92
2022-08-26T07:51:03.514Z,23.95
2022-08-26T07:52:03.420Z,23.98
2022-08-26T07:53:03.393Z,24.01
2022-08-26T07:54:03.337Z,24.05
2022-08-26T07:55:03.437Z,24.03
2022-08-26T07:56:02.988Z,24.08
2022-08-26T07:57:02.176Z,24.11
2022-08-26T07:58:02.379Z,24.07
2022-08-26T07:59:02.547Z,24.06
2022-08-26T08:00:02.534Z,24.07
2022-08-26T08:01:02.361Z,24.07
2022-08-26T08:02:02.685Z,24.09
2022-08-26T08:03:02.537Z,24.09
2022-08-26T08:04:02.588Z,24.09
2022-08-26T08:05:02.932Z,24.05
2022-08-26T08:06:02.500Z,24.03
2022-08-26T08:07:02.764Z,24.01
2022-08-26T08:08:26.264Z,24.02
2022-08-26T08:09:03.222Z,23.99
2022-08-26T08:10:05.576Z,23.99
2022-08-26T08:11:03.159Z,24.01
2022-08-26T08:12:03.084Z,24.04
2022-08-26T08:13:03.373Z,24.04
2022-08-26T08:14:03.303Z,24.02
2022-08-26T08:15:03.418Z,24.00
2022-08-26T08:16:03.195Z,24.01
2022-08-26T08:17:03.149Z,24.06
2022-08-26T08:18:02.942Z,24.10
2022-08-26T08:19:02.940Z,24.13
2022-08-26T08:20:02.839Z,24.13
2022-08-26T08:21:21.264Z,24.14
2022-08-26T08:22:02.899Z,24.17
2022-08-26T08:23:03.214Z,24.20
2022-08-26T08:24:03.402Z,24.15
2022-08-26T08:25:08.046Z,24.17
2022-08-26T08:26:02.944Z,24.20
2022-08-26T08:27:02.682Z,24.22
2022-08-26T08:28:02.570Z,24.27
2022-08-26T08:29:02.953Z,24.23
2022-08-26T08:30:02.745Z,24.18
2022-08-26T08:31:02.806Z,24.12
2022-08-26T08:32:03.214Z,24.12
2022-08-26T08:33:03.094Z,24.12
2022-08-26T08:34:03.413Z,24.10
2022-08-26T08:35:10.945Z,24.09
2022-08-26T08:36:03.541Z,24.11
2022-08-26T08:37:04.405Z,24.13
2022-08-26T08:38:04.281Z,24.11
2022-08-26T08:39:03.172Z,24.14
2022-08-26T08:40:03.890Z,24.18
2022-08-26T08:41:05.528Z,24.20
2022-08-26T08:42:03.012Z,24.24
2022-08-26T08:43:03.097Z,24.28
2022-08-26T08:44:03.186Z,24.33
2022-08-26T08:45:02.793Z,24.35
2022-08-26T08:46:03.170Z,24.36
2022-08-26T08:47:03.167Z,24.37
2022-08-26T08:48:03.528Z,24.42
2022-08-26T08:49:03.004Z,24.45
2022-08-26T08:50:03.688Z,24.48
2022-08-26T08:51:03.551Z,24.51
2022-08-26T08:52:04.231Z,24.55
2022-08-26T08:53:03.663Z,24.58
2022-08-26T08:54:03.717Z,24.58
2022-08-26T08:55:04.190Z,24.59
2022-08-26T08:56:04.083Z,24.60
2022-08-26T08:57:03.051Z,24.62
2022-08-26T08:58:03.251Z,24.62
2022-08-26T08:59:02.871Z,24.60
2022-08-26T09:00:03.354Z,24.61
2022-08-26T09:01:03.122Z,24.63
2022-08-26T09:02:02.484Z,24.63
2022-08-26T09:03:02.595Z,24.64
2022-08-26T09:04:02.281Z,24.66
2022-08-26T09:05:02.657Z,24.70
2022-08-26T09:06:02.290Z,24.74
2022-08-26T09:07:02.720Z,24.75
2022-08-26T09:08:02.682Z,24.78
2022-08-26T09:09:02.509Z,24.81
2022-08-26T09:10:02.643Z,24.84
2022-08-26T09:11:02.799Z,24.88
2022-08-26T09:12:01.929Z,24.88
2022-08-26T09:13:02.471Z,24.92
2022-08-26T09:14:02.325Z,24.95
2022-08-26T09:15:02.488Z,24.98
2022-08-26T09:16:01.833Z,25.00
2022-08-26T09:17:02.513Z,25.04
2022-08-26T09:18:02.842Z,25.04
2022-08-26T09:19:02.153Z,25.05
2022-08-26T09:20:02.284Z,25.06
2022-08-26T09:21:02.474Z,25.03
2022-08-26T09:22:06.966Z,25.05
2022-08-26T09:23:02.426Z,25.04
2022-08-26T09:24:02.625Z,25.06
2022-08-26T09:25:02.585Z,25.05
2022-08-26T09:26:02.778Z,25.06
2022-08-26T09:27:02.924Z,25.04
2022-08-26T09:28:02.899Z,25.04
2022-08-26T09:29:02.763Z,25.03
2022-08-26T09:30:03.224Z,24.97
2022-08-26T09:31:05.717Z,24.94
2022-08-26T09:32:02.638Z,24.96
2022-08-26T09:33:02.836Z,24.97
2022-08-26T09:34:02.483Z,24.98
2022-08-26T09:35:02.310Z,24.98
2022-08-26T09:36:02.625Z,25.02
2022-08-26T09:37:04.696Z,25.04
2022-08-26T09:38:02.512Z,25.07
2022-08-26T09:39:02.651Z,25.08
2022-08-26T09:40:02.650Z,25.07
2022-08-26T09:41:02.854Z,25.05
2022-08-26T09:42:02.894Z,25.01
2022-08-26T09:43:02.944Z,25.03
2022-08-26T09:44:02.739Z,25.06
2022-08-26T09:45:02.556Z,25.07
2022-08-26T09:46:02.801Z,25.07
2022-08-26T09:47:03.287Z,25.10
2022-08-26T09:48:02.748Z,25.09
2022-08-26T09:49:02.768Z,25.03
2022-08-26T09:50:02.982Z,25.02
2022-08-26T09:51:03.201Z,25.05
2022-08-26T09:52:03.097Z,25.09
2022-08-26T09:53:02.918Z,25.07
2022-08-26T09:54:02.781Z,25.11
2022-08-26T09:55:03.470Z,25.12
2022-08-26T09:56:02.984Z,25.14
2022-08-26T09:57:02.820Z,25.15
2022-08-26T09:58:08.041Z,25.14
2022-08-26T09:59:02.961Z,25.13
2022-08-26T10:00:02.769Z,25.14
2022-08-26T10:01:03.023Z,25.16
2022-08-26T10:03:01.603Z,25.23
2022-08-26T10:04:01.931Z,25.23
2022-08-26T10:05:09.275Z,25.25
2022-08-26T10:06:02.117Z,25.20
2022-08-26T10:07:02.327Z,25.22
2022-08-26T10:08:01.878Z,25.17
2022-08-26T10:09:08.347Z,25.17
2022-08-26T10:10:01.983Z,25.16
2022-08-26T10:11:02.559Z,25.17
2022-08-26T10:12:03.019Z,25.17
2022-08-26T10:13:03.150Z,25.14
2022-08-26T10:14:03.011Z,25.14
2022-08-26T10:15:03.259Z,25.12
2022-08-26T10:16:02.577Z,25.10
2022-08-26T10:17:02.560Z,25.03
2022-08-26T10:18:01.989Z,25.01
2022-08-26T10:19:02.254Z,25.00
2022-08-26T10:20:02.456Z,24.88
2022-08-26T10:21:02.135Z,24.85
2022-08-26T10:22:02.596Z,24.85
2022-08-26T10:23:02.772Z,24.79
2022-08-26T10:24:02.466Z,24.83
2022-08-26T10:25:02.792Z,24.83
2022-08-26T10:26:02.241Z,24.86
2022-08-26T10:27:03.093Z,24.91
2022-08-26T10:28:02.932Z,24.93
2022-08-26T10:29:03.130Z,24.95
2022-08-26T10:30:02.978Z,24.96
2022-08-26T10:31:02.653Z,24.93
2022-08-26T10:32:02.698Z,24.96
2022-08-26T10:33:02.307Z,24.97
2022-08-26T10:34:01.898Z,24.94
2022-08-26T10:35:01.980Z,24.91
2022-08-26T10:36:02.138Z,24.94
2022-08-26T10:37:14.932Z,24.93
2022-08-26T10:38:02.551Z,24.92
2022-08-26T10:39:02.370Z,24.91
2022-08-26T10:40:02.608Z,24.83
2022-08-26T10:41:02.392Z,24.83
2022-08-26T10:42:03.142Z,24.81
2022-08-26T10:43:07.184Z,24.81
2022-08-26T10:44:02.657Z,24.82
2022-08-26T10:45:02.939Z,24.82
2022-08-26T10:46:02.828Z,24.79
2022-08-26T10:47:03.379Z,24.81
2022-08-26T10:48:03.148Z,24.76
2022-08-26T10:49:03.383Z,24.71
2022-08-26T10:50:03.642Z,24.69
2022-08-26T10:51:03.020Z,24.63
2022-08-26T10:52:02.899Z,24.65
2022-08-26T10:53:02.334Z,24.65
2022-08-26T10:54:03.281Z,24.68
2022-08-26T10:55:03.153Z,24.70
2022-08-26T10:56:02.863Z,24.71
2022-08-26T10:57:03.226Z,24.63
2022-08-26T10:58:05.451Z,24.60
2022-08-26T10:59:02.655Z,24.55
2022-08-26T11:00:03.135Z,24.58
2022-08-26T11:01:02.687Z,24.59
2022-08-26T11:02:03.795Z,24.61
2022-08-26T11:03:02.653Z,24.64
2022-08-26T11:04:02.704Z,24.67
2022-08-26T11:05:02.663Z,24.71
2022-08-26T11:06:03.291Z,24.65
2022-08-26T11:07:02.228Z,24.66
2022-08-26T11:08:02.610Z,24.66
2022-08-26T11:09:02.835Z,24.70
2022-08-26T11:10:02.608Z,24.74
2022-08-26T11:11:02.861Z,24.77
2022-08-26T11:12:06.769Z,24.75
2022-08-26T11:13:02.782Z,24.67
2022-08-26T11:14:02.915Z,24.68
2022-08-26T11:15:02.626Z,24.68
2022-08-26T11:16:02.761Z,24.67
2022-08-26T11:17:02.869Z,24.65
2022-08-26T11:18:02.956Z,24.63
2022-08-26T11:19:02.975Z,24.64
2022-08-26T11:20:07.409Z,24.64
2022-08-26T11:21:03.238Z,24.67
2022-08-26T11:22:03.163Z,24.72
2022-08-26T11:23:02.639Z,24.76
2022-08-26T11:24:02.575Z,24.76
2022-08-26T11:25:02.604Z,24.72
2022-08-26T11:26:02.617Z,24.74
2022-08-26T11:27:02.804Z,24.71
2022-08-26T11:28:03.496Z,24.70
2022-08-26T11:29:03.604Z,24.70
2022-08-26T11:30:03.459Z,24.73
2022-08-26T11:31:03.314Z,24.76
2022-08-26T11:32:03.183Z,24.76
2022-08-26T11:33:02.569Z,24.78
2022-08-26T11:34:02.756Z,24.75
2022-08-26T11:35:02.817Z,24.77
2022-08-26T11:36:07.400Z,24.77
2022-08-26T11:37:02.415Z,24.76
2022-08-26T11:38:04.234Z,24.79
2022-08-26T11:39:03.291Z,24.80
2022-08-26T11:40:03.903Z,24.83
2022-08-26T11:41:03.351Z,24.82
2022-08-26T11:42:03.500Z,24.84
2022-08-26T11:43:02.756Z,24.86
2022-08-26T11:44:02.699Z,24.93
2022-08-26T11:45:05.632Z,24.94
2022-08-26T11:46:03.012Z,24.88
2022-08-26T11:47:03.132Z,24.87
2022-08-26T11:48:02.899Z,24.92
2022-08-26T11:49:03.130Z,24.94
2022-08-26T11:50:03.184Z,25.00
2022-08-26T11:51:03.387Z,25.02
2022-08-26T11:52:03.171Z,25.04
2022-08-26T11:53:03.093Z,25.06
2022-08-26T11:54:03.132Z,25.08
2022-08-26T11:55:02.748Z,25.06
2022-08-26T11:56:02.884Z,25.06
2022-08-26T11:57:07.326Z,25.09
2022-08-26T11:58:04.880Z,25.08
2022-08-26T11:59:03.166Z,25.11
2022-08-26T12:00:03.239Z,25.15
2022-08-26T12:01:03.811Z,25.21
2022-08-26T12:02:03.747Z,25.24
2022-08-26T12:03:02.972Z,25.28
2022-08-26T12:04:03.202Z,25.30
2022-08-26T12:05:03.097Z,25.29
2022-08-26T12:06:02.842Z,25.29
2022-08-26T12:07:03.438Z,25.31
2022-08-26T12:08:03.053Z,25.33
2022-08-26T12:09:02.758Z,25.36
2022-08-26T12:10:02.499Z,25.41
2022-08-26T12:11:02.775Z,25.46
2022-08-26T12:12:02.650Z,25.50
2022-08-26T12:13:03.188Z,25.56
2022-08-26T12:14:02.899Z,25.59
2022-08-26T12:15:02.889Z,25.65
2022-08-26T12:16:03.527Z,25.70
2022-08-26T12:17:03.282Z,25.75
2022-08-26T12:18:02.930Z,25.72
2022-08-26T12:19:02.878Z,25.73
2022-08-26T12:20:02.705Z,25.76
2022-08-26T12:21:02.621Z,25.78
2022-08-26T12:22:02.747Z,25.85
2022-08-26T12:23:03.470Z,25.91
2022-08-26T12:24:03.513Z,25.97
2022-08-26T12:25:03.088Z,25.97
2022-08-26T12:26:03.212Z,25.96
2022-08-26T12:27:03.686Z,25.95
2022-08-26T12:28:03.169Z,25.93
2022-08-26T12:29:20.312Z,25.93
2022-08-26T12:30:03.388Z,25.95
2022-08-26T12:31:03.404Z,25.92
2022-08-26T12:32:03.412Z,25.90
2022-08-26T12:33:02.829Z,25.83
2022-08-26T12:34:02.827Z,25.80
2022-08-26T12:35:07.732Z,25.83
2022-08-26T12:36:02.902Z,25.86
2022-08-26T12:37:02.353Z,25.81
2022-08-26T12:38:02.981Z,25.78
2022-08-26T12:39:03.492Z,25.75
2022-08-26T12:40:03.413Z,25.74
2022-08-26T12:41:03.396Z,25.73
2022-08-26T12:42:03.115Z,25.74
2022-08-26T12:43:03.301Z,25.77
2022-08-26T12:44:03.318Z,25.83
2022-08-26T12:45:03.477Z,25.83
2022-08-26T12:46:03.661Z,25.84
2022-08-26T12:47:03.766Z,25.84
2022-08-26T12:48:03.108Z,25.85
2022-08-26T12:49:03.128Z,25.88
2022-08-26T12:50:02.960Z,25.90
2022-08-26T12:51:02.860Z,25.97
2022-08-26T12:52:02.693Z,26.01
2022-08-26T12:53:02.990Z,26.01